Terminal Aerodrome Forecast
Issued by NWS La Crosse, WI

Home | Current Version | Previous Version | Text Only | Print | Product List | Glossary On
Versions: 1 2 3 4 5 6 7 8 9 10 11 12 13 14 15 16 17 18 19 20 21 22 23 24 25 26 27 28 29 30 31 32 33 34 35 36 37 38 39 40 41 42 43 44 45 46 47 48 49 50
000
FTUS43 KARX 060520
TAFLSE
TAF
KLSE 060520Z 0606/0706 12004KT 6SM BR OVC012
     FM060700 11007KT 5SM BR BKN009
     FM061400 13008KT 6SM BR BKN015
     FM061700 14011G18KT P6SM SCT020 BKN200
     FM070000 15008KT P6SM BKN060=

USA.gov is the U.S. government's official web portal to all federal, state and local government web resources and services.